createdAt,value
2016-07-28T00:00:37.299Z,98.45
2016-07-28T00:01:28.537Z,97.81
2016-07-28T00:02:33.137Z,97.77
2016-07-28T00:03:25.348Z,97.40
2016-07-28T00:04:35.825Z,97.77
2016-07-28T00:05:31.941Z,97.06
2016-07-28T00:06:24.586Z,96.94
2016-07-28T00:07:54.385Z,97.16
2016-07-28T00:09:49.319Z,97.52
2016-07-28T00:10:42.672Z,96.73
2016-07-28T00:11:36.541Z,97.32
2016-07-28T00:12:32.146Z,97.42
2016-07-28T00:13:39.044Z,97.07
2016-07-28T00:14:33.503Z,97.13
2016-07-28T00:15:40.297Z,96.72
2016-07-28T00:16:30.473Z,96.57
2016-07-28T00:17:42.449Z,97.27
2016-07-28T00:18:28.377Z,97.15
2016-07-28T00:19:29.981Z,97.55
2016-07-28T00:20:30.183Z,96.77
2016-07-28T00:22:31.963Z,97.04
2016-07-28T00:23:28.778Z,97.15
2016-07-28T00:24:18.137Z,97.17
2016-07-28T00:25:32.348Z,97.33
2016-07-28T00:26:35.767Z,96.87
2016-07-28T00:27:44.180Z,96.75
2016-07-28T00:28:39.777Z,97.15
2016-07-28T00:29:44.083Z,96.93
2016-07-28T00:30:29.427Z,97.65
2016-07-28T00:31:29.736Z,96.62
2016-07-28T00:32:45.609Z,96.71
2016-07-28T00:33:38.249Z,97.16
2016-07-28T00:34:36.746Z,97.57
2016-07-28T00:35:29.079Z,97.81
2016-07-28T00:37:24.420Z,97.27
2016-07-28T00:38:32.515Z,97.15
2016-07-28T00:39:39.602Z,97.25
2016-07-28T00:40:33.917Z,97.06
2016-07-28T00:41:37.613Z,96.65
2016-07-28T00:42:31.270Z,96.50
2016-07-28T00:43:25.700Z,96.52
2016-07-28T00:44:38.047Z,96.65
2016-07-28T00:45:26.501Z,96.53
2016-07-28T00:46:30.542Z,96.83
2016-07-28T00:47:32.711Z,96.51
2016-07-28T00:48:31.629Z,96.37
2016-07-28T00:50:30.493Z,96.14
2016-07-28T00:52:29.906Z,97.60
2016-07-28T00:53:49.173Z,97.89
2016-07-28T00:54:36.389Z,97.63
2016-07-28T00:55:30.031Z,97.69
2016-07-28T00:56:35.673Z,97.80
2016-07-28T00:57:36.394Z,97.95
2016-07-28T00:58:42.202Z,97.83
2016-07-28T00:59:28.524Z,97.85
2016-07-28T01:00:36.842Z,98.00
2016-07-28T01:01:30.696Z,97.87
2016-07-28T01:02:44.622Z,97.87
2016-07-28T01:03:33.200Z,98.04
2016-07-28T01:04:37.055Z,97.67
2016-07-28T01:05:29.332Z,97.24
2016-07-28T01:06:31.084Z,97.80
2016-07-28T01:07:27.678Z,98.20
2016-07-28T01:08:32.147Z,98.43
2016-07-28T01:09:31.736Z,98.37
2016-07-28T01:10:30.773Z,97.89
2016-07-28T01:11:39.944Z,97.32
2016-07-28T01:12:30.196Z,97.35
2016-07-28T01:13:26.204Z,97.33
2016-07-28T01:14:36.016Z,97.51
2016-07-28T01:15:35.838Z,97.56
2016-07-28T01:16:31.478Z,97.70
2016-07-28T01:18:25.540Z,97.29
2016-07-28T01:21:29.702Z,98.01
2016-07-28T01:23:28.927Z,98.14
2016-07-28T01:24:41.626Z,97.84
2016-07-28T01:25:29.482Z,97.99
2016-07-28T01:27:35.042Z,97.52
2016-07-28T01:28:28.207Z,97.45
2016-07-28T01:29:29.479Z,97.14
2016-07-28T01:31:31.000Z,97.35
2016-07-28T01:33:31.474Z,96.75
2016-07-28T01:34:34.836Z,97.32
2016-07-28T01:35:38.089Z,97.64
2016-07-28T01:36:43.417Z,97.67
2016-07-28T01:37:23.424Z,97.12
2016-07-28T01:38:38.392Z,97.08
2016-07-28T01:39:35.665Z,96.09
2016-07-28T01:40:35.400Z,95.94
2016-07-28T01:41:38.663Z,96.46
2016-07-28T01:42:39.663Z,97.28
2016-07-28T01:43:33.940Z,97.11
2016-07-28T01:44:28.447Z,97.37
2016-07-28T01:45:28.492Z,97.91
2016-07-28T01:46:43.777Z,96.88
2016-07-28T01:47:29.939Z,96.88
2016-07-28T01:48:30.543Z,96.51
2016-07-28T01:49:27.948Z,97.11
2016-07-28T01:50:29.875Z,96.98
2016-07-28T01:52:29.373Z,98.44
2016-07-28T01:53:50.189Z,97.51
2016-07-28T01:54:51.833Z,97.76
2016-07-28T01:55:39.007Z,98.16
2016-07-28T01:56:37.049Z,98.02
2016-07-28T01:57:25.821Z,97.87
2016-07-28T01:58:38.204Z,97.47
2016-07-28T01:59:35.990Z,97.23
2016-07-28T02:00:25.647Z,97.33
2016-07-28T02:01:27.531Z,97.05
2016-07-28T02:02:47.526Z,97.17
2016-07-28T02:03:31.845Z,97.02
2016-07-28T02:04:28.101Z,97.14
2016-07-28T02:05:29.804Z,97.01
2016-07-28T02:06:37.663Z,96.69
2016-07-28T02:07:34.921Z,96.45
2016-07-28T02:08:35.149Z,96.25
2016-07-28T02:09:49.360Z,96.62
2016-07-28T02:10:31.740Z,96.87
2016-07-28T02:11:50.178Z,97.15
2016-07-28T02:12:33.340Z,97.32
2016-07-28T02:13:42.398Z,97.59
2016-07-28T02:15:39.843Z,97.07
2016-07-28T02:16:29.550Z,96.82
2016-07-28T02:18:45.734Z,96.81
2016-07-28T02:19:45.851Z,97.19
2016-07-28T02:20:49.151Z,97.33
2016-07-28T02:21:35.710Z,97.29
2016-07-28T02:22:32.158Z,96.45
2016-07-28T02:23:29.754Z,96.97
2016-07-28T02:24:29.864Z,96.66
2016-07-28T02:25:28.874Z,96.77
2016-07-28T02:27:39.595Z,96.17
2016-07-28T02:28:27.115Z,96.02
2016-07-28T02:29:30.394Z,96.59
2016-07-28T02:30:25.200Z,96.98
2016-07-28T02:31:58.802Z,97.48
2016-07-28T02:32:48.924Z,97.38
2016-07-28T02:34:34.834Z,96.69
2016-07-28T02:35:40.498Z,96.52
2016-07-28T02:36:44.910Z,96.63
2016-07-28T02:37:34.221Z,97.24
2016-07-28T02:38:40.885Z,97.54
2016-07-28T02:39:40.723Z,97.71
2016-07-28T02:40:28.810Z,97.47
2016-07-28T02:42:50.000Z,97.38
2016-07-28T02:43:38.426Z,96.71
2016-07-28T02:44:28.532Z,97.11
2016-07-28T02:45:49.177Z,97.67
2016-07-28T02:46:33.254Z,97.94
2016-07-28T02:47:25.183Z,97.76
2016-07-28T02:48:33.347Z,97.61
2016-07-28T02:49:34.575Z,97.39
2016-07-28T02:50:29.151Z,97.38
2016-07-28T02:51:43.537Z,97.49
2016-07-28T02:52:40.533Z,97.11
2016-07-28T02:53:33.990Z,97.59
2016-07-28T02:54:48.964Z,98.11
2016-07-28T02:55:33.370Z,97.70
2016-07-28T02:56:37.549Z,97.91
2016-07-28T02:57:40.998Z,97.85
2016-07-28T02:58:17.920Z,97.45
2016-07-28T02:59:55.027Z,97.37
2016-07-28T03:00:28.198Z,97.43
2016-07-28T03:01:37.986Z,97.64
2016-07-28T03:02:25.762Z,97.46
2016-07-28T03:03:34.294Z,97.69
2016-07-28T03:04:30.076Z,97.42
2016-07-28T03:05:29.195Z,97.79
2016-07-28T03:07:36.289Z,97.89
2016-07-28T03:08:32.027Z,97.63
2016-07-28T03:09:28.564Z,97.83
2016-07-28T03:10:33.996Z,97.84
2016-07-28T03:12:40.583Z,97.98
2016-07-28T03:13:28.809Z,98.04
2016-07-28T03:14:39.750Z,98.21
2016-07-28T03:15:32.583Z,98.15
2016-07-28T03:16:40.866Z,98.22
2016-07-28T03:17:34.958Z,97.84
2016-07-28T03:18:42.081Z,97.84
2016-07-28T03:19:28.629Z,97.99
2016-07-28T03:20:31.451Z,97.28
2016-07-28T03:21:32.086Z,97.61
2016-07-28T03:22:45.616Z,97.67
2016-07-28T03:23:35.657Z,98.02
2016-07-28T03:24:28.292Z,98.25
2016-07-28T03:25:29.846Z,98.03
2016-07-28T03:26:38.863Z,97.85
2016-07-28T03:27:50.000Z,97.82
2016-07-28T03:28:38.623Z,97.37
2016-07-28T03:30:29.298Z,97.47
2016-07-28T03:33:23.783Z,97.71
2016-07-28T03:34:48.627Z,97.20
2016-07-28T03:35:44.625Z,96.97
2016-07-28T03:36:33.395Z,97.33
2016-07-28T03:37:33.207Z,97.66
2016-07-28T03:38:37.278Z,97.79
2016-07-28T03:39:29.356Z,97.75
2016-07-28T03:40:30.607Z,97.50
2016-07-28T03:41:34.649Z,97.17
2016-07-28T03:42:30.408Z,97.27
2016-07-28T03:43:31.536Z,97.66
2016-07-28T03:44:29.954Z,97.53
2016-07-28T03:45:30.465Z,97.09
2016-07-28T03:46:29.253Z,97.19
2016-07-28T03:47:25.598Z,97.34
2016-07-28T03:48:32.120Z,97.61
2016-07-28T03:49:49.633Z,97.78
2016-07-28T03:50:43.406Z,97.23
2016-07-28T03:51:28.637Z,97.64
2016-07-28T03:52:34.997Z,97.50
2016-07-28T03:53:46.366Z,97.32
2016-07-28T03:54:28.313Z,97.61
2016-07-28T03:55:30.130Z,97.43
2016-07-28T03:56:30.226Z,97.26
2016-07-28T03:57:29.527Z,96.97
2016-07-28T03:58:39.585Z,97.33
2016-07-28T03:59:31.094Z,97.63
2016-07-28T04:00:31.282Z,97.93
2016-07-28T04:01:30.112Z,97.70
2016-07-28T04:02:33.037Z,97.10
2016-07-28T04:03:35.778Z,96.67
2016-07-28T04:04:23.684Z,97.01
2016-07-28T04:05:18.831Z,96.93
2016-07-28T04:06:28.416Z,97.30
2016-07-28T04:07:37.736Z,97.59
2016-07-28T04:08:23.583Z,97.33
2016-07-28T04:09:30.597Z,97.67
2016-07-28T04:10:23.454Z,97.67
2016-07-28T04:11:26.392Z,97.64
2016-07-28T04:12:36.673Z,97.29
2016-07-28T04:13:27.173Z,97.03
2016-07-28T04:14:22.804Z,97.26
2016-07-28T04:15:33.376Z,97.83
2016-07-28T04:16:22.222Z,97.91
2016-07-28T04:17:29.822Z,98.03
2016-07-28T04:19:23.725Z,98.03
2016-07-28T04:20:28.656Z,98.14
2016-07-28T04:21:29.585Z,97.88
2016-07-28T04:22:35.704Z,97.32
2016-07-28T04:23:23.504Z,96.89
2016-07-28T04:24:28.453Z,97.48
2016-07-28T04:25:35.668Z,97.76
2016-07-28T04:26:23.444Z,97.72
2016-07-28T04:27:33.166Z,97.71
2016-07-28T04:28:37.220Z,97.28
2016-07-28T04:29:30.095Z,97.78
2016-07-28T04:30:29.025Z,97.95
2016-07-28T04:31:34.240Z,98.04
2016-07-28T04:32:23.454Z,97.95
2016-07-28T04:33:23.980Z,97.49
2016-07-28T04:34:23.914Z,96.97
2016-07-28T04:35:23.378Z,97.25
2016-07-28T04:36:30.800Z,97.19
2016-07-28T04:37:27.365Z,97.40
2016-07-28T04:38:35.987Z,96.82
2016-07-28T04:39:39.667Z,96.54
2016-07-28T04:40:24.120Z,97.00
2016-07-28T04:41:29.482Z,97.03
2016-07-28T04:42:39.288Z,97.27
2016-07-28T04:43:36.972Z,97.45
2016-07-28T04:44:32.787Z,97.33
2016-07-28T04:45:23.659Z,97.39
2016-07-28T04:46:25.847Z,97.84
2016-07-28T04:47:24.283Z,97.54
2016-07-28T04:48:15.826Z,97.66
2016-07-28T04:49:24.434Z,98.24
2016-07-28T04:50:30.647Z,98.22
2016-07-28T04:51:23.795Z,97.92
2016-07-28T04:53:40.002Z,97.88
2016-07-28T04:54:24.656Z,97.38
2016-07-28T04:55:33.999Z,97.39
2016-07-28T04:56:36.647Z,97.49
2016-07-28T04:57:34.895Z,97.38
2016-07-28T04:58:19.637Z,97.30
2016-07-28T04:59:23.547Z,97.64
2016-07-28T05:00:23.404Z,97.94
2016-07-28T05:01:23.916Z,98.52
2016-07-28T05:02:28.648Z,97.62
2016-07-28T05:03:33.356Z,97.91
2016-07-28T05:04:27.895Z,97.28
2016-07-28T05:05:23.194Z,97.32
2016-07-28T05:06:43.217Z,97.58
2016-07-28T05:07:23.254Z,97.71
2016-07-28T05:08:33.865Z,97.96
2016-07-28T05:09:30.757Z,98.48
2016-07-28T05:10:24.345Z,98.73
2016-07-28T05:11:26.746Z,98.32
2016-07-28T05:13:18.944Z,98.12
2016-07-28T05:14:25.652Z,98.61
2016-07-28T05:15:36.248Z,98.45
2016-07-28T05:16:31.562Z,98.18
2016-07-28T05:17:23.355Z,97.67
2016-07-28T05:18:23.264Z,97.99
2016-07-28T05:19:30.249Z,98.07
2016-07-28T05:20:23.816Z,98.28
2016-07-28T05:21:34.209Z,97.53
2016-07-28T05:22:27.753Z,97.40
2016-07-28T05:23:24.018Z,96.81
2016-07-28T05:24:28.785Z,97.68
2016-07-28T05:25:22.926Z,97.95
2016-07-28T05:26:24.296Z,97.57
2016-07-28T05:28:39.100Z,97.15
2016-07-28T05:29:25.758Z,96.83
2016-07-28T05:31:34.569Z,97.03
2016-07-28T05:32:34.678Z,97.12
2016-07-28T05:33:29.416Z,96.86
2016-07-28T05:34:31.009Z,96.58
2016-07-28T05:36:29.987Z,96.30
2016-07-28T05:37:35.335Z,96.50
2016-07-28T05:38:58.396Z,96.58
2016-07-28T05:39:30.985Z,96.60
2016-07-28T05:40:43.789Z,96.30
2016-07-28T05:41:36.536Z,96.17
2016-07-28T05:42:42.801Z,96.31
2016-07-28T05:43:24.215Z,96.28
2016-07-28T05:44:32.428Z,96.69
2016-07-28T05:45:31.603Z,96.22
2016-07-28T05:46:22.663Z,95.93
2016-07-28T05:47:28.535Z,95.88
2016-07-28T05:48:32.331Z,96.12
2016-07-28T05:49:29.379Z,96.32
2016-07-28T05:50:42.669Z,96.13
2016-07-28T05:51:41.670Z,96.64
2016-07-28T05:52:40.638Z,96.57
2016-07-28T05:53:45.707Z,96.69
2016-07-28T05:54:24.037Z,96.28
2016-07-28T05:55:30.812Z,95.94
2016-07-28T05:56:32.307Z,96.60
2016-07-28T05:57:28.455Z,97.64
2016-07-28T05:58:29.192Z,97.50
2016-07-28T05:59:23.962Z,97.47
2016-07-28T06:00:23.029Z,97.16
2016-07-28T06:02:35.065Z,97.42
2016-07-28T06:03:46.020Z,97.28
2016-07-28T06:04:28.215Z,96.55
2016-07-28T06:05:42.549Z,96.90
2016-07-28T06:06:54.408Z,96.63
2016-07-28T06:07:37.834Z,96.11
2016-07-28T06:08:24.593Z,96.57
2016-07-28T06:09:23.939Z,96.87
2016-07-28T06:10:29.760Z,96.84
2016-07-28T06:13:28.903Z,96.88
2016-07-28T06:15:48.559Z,97.48
2016-07-28T06:17:11.678Z,97.46
2016-07-28T06:17:33.947Z,97.10
2016-07-28T06:18:34.865Z,97.60
2016-07-28T06:19:36.533Z,96.88
2016-07-28T06:20:31.357Z,96.48
2016-07-28T06:21:24.494Z,96.93
2016-07-28T06:22:54.268Z,96.49
2016-07-28T06:23:32.019Z,96.49
2016-07-28T06:24:35.607Z,96.69
2016-07-28T06:25:24.316Z,96.37
2016-07-28T06:26:24.287Z,96.29
2016-07-28T06:27:23.586Z,96.31
2016-07-28T06:28:30.317Z,96.25
2016-07-28T06:29:24.341Z,96.37
2016-07-28T06:30:49.386Z,96.19
2016-07-28T06:32:53.784Z,96.85
2016-07-28T06:33:35.039Z,97.12
2016-07-28T06:34:28.843Z,96.14
2016-07-28T06:35:28.845Z,95.46
2016-07-28T06:36:35.075Z,95.64
2016-07-28T06:37:26.042Z,95.91
2016-07-28T06:38:34.357Z,95.68
2016-07-28T06:39:39.056Z,96.14
2016-07-28T06:40:31.119Z,95.57
2016-07-28T06:41:25.247Z,95.52
2016-07-28T06:43:25.664Z,95.43
2016-07-28T06:45:46.969Z,94.82
2016-07-28T06:46:29.873Z,94.98
2016-07-28T06:47:36.825Z,93.31
2016-07-28T06:48:39.808Z,93.54
2016-07-28T06:49:48.385Z,93.97
2016-07-28T06:50:30.999Z,92.87
2016-07-28T06:51:40.596Z,93.07
2016-07-28T06:52:44.806Z,93.71
2016-07-28T06:53:31.748Z,94.43
2016-07-28T06:54:19.444Z,93.46
2016-07-28T06:55:29.175Z,93.53
2016-07-28T06:56:31.830Z,93.45
2016-07-28T06:57:29.599Z,93.72
2016-07-28T06:58:24.366Z,93.20
2016-07-28T06:59:23.035Z,93.62
2016-07-28T07:00:37.971Z,94.15
2016-07-28T07:01:17.252Z,93.23
2016-07-28T07:02:17.828Z,93.55
2016-07-28T07:03:24.449Z,93.38
2016-07-28T07:04:32.667Z,92.08
2016-07-28T07:05:29.080Z,91.18
2016-07-28T07:06:43.363Z,92.66
2016-07-28T07:07:34.886Z,92.43
2016-07-28T07:08:20.718Z,92.85
2016-07-28T07:09:30.937Z,92.74
2016-07-28T07:10:23.507Z,92.71
2016-07-28T07:11:23.479Z,93.02
2016-07-28T07:12:32.359Z,92.04
2016-07-28T07:13:37.728Z,91.60
2016-07-28T07:14:28.847Z,92.40
2016-07-28T07:15:30.525Z,91.23
2016-07-28T07:16:34.575Z,90.69
2016-07-28T07:18:29.190Z,88.97
2016-07-28T07:19:37.925Z,88.91
2016-07-28T07:20:24.384Z,88.61
2016-07-28T07:21:36.490Z,89.10
2016-07-28T07:22:48.088Z,89.24
2016-07-28T07:25:35.187Z,88.56
2016-07-28T07:26:34.998Z,88.69
2016-07-28T07:30:34.435Z,86.55
2016-07-28T07:31:29.554Z,86.93
2016-07-28T07:32:41.109Z,86.60
2016-07-28T07:34:31.246Z,86.22
2016-07-28T07:36:54.861Z,86.39
2016-07-28T07:37:28.305Z,86.88
2016-07-28T07:38:36.822Z,85.26
2016-07-28T07:40:23.452Z,86.24
2016-07-28T07:41:31.530Z,87.53
2016-07-28T07:42:24.987Z,88.13
2016-07-28T07:43:46.488Z,88.09
2016-07-28T07:45:34.111Z,86.42
2016-07-28T07:58:35.801Z,85.66
2016-07-28T07:59:29.844Z,86.36
2016-07-28T08:00:25.633Z,87.01
2016-07-28T08:01:33.564Z,84.77
2016-07-28T08:02:25.688Z,84.75
2016-07-28T08:03:23.744Z,85.33
2016-07-28T08:04:44.595Z,84.31
2016-07-28T08:05:44.573Z,82.37
2016-07-28T08:07:32.651Z,82.79
2016-07-28T08:08:29.843Z,86.06
2016-07-28T08:09:26.734Z,86.04
2016-07-28T08:10:22.765Z,85.62
2016-07-28T08:11:23.670Z,84.85
2016-07-28T08:12:21.652Z,84.03
2016-07-28T08:13:17.918Z,83.72
2016-07-28T08:14:28.064Z,83.92
2016-07-28T08:15:24.513Z,84.56
2016-07-28T08:16:35.714Z,86.56
2016-07-28T08:17:36.902Z,85.81
2016-07-28T08:18:31.985Z,85.91
2016-07-28T08:19:23.783Z,83.43
2016-07-28T08:20:23.224Z,83.57
2016-07-28T08:21:22.749Z,83.05
2016-07-28T08:22:36.989Z,81.40
2016-07-28T08:23:32.834Z,82.24
2016-07-28T08:24:18.076Z,80.66
2016-07-28T08:25:36.408Z,80.00
2016-07-28T08:26:28.213Z,80.67
2016-07-28T08:27:25.081Z,80.76
2016-07-28T08:28:33.122Z,80.61
2016-07-28T08:29:34.163Z,84.30
2016-07-28T08:30:22.931Z,84.07
2016-07-28T08:31:35.313Z,83.32
2016-07-28T08:32:30.162Z,81.55
2016-07-28T08:33:33.840Z,80.50
2016-07-28T08:34:23.290Z,80.44
2016-07-28T08:35:31.112Z,81.64
2016-07-28T08:36:32.123Z,81.86
2016-07-28T08:37:25.211Z,81.66
2016-07-28T08:38:29.666Z,82.73
2016-07-28T08:39:29.827Z,80.20
2016-07-28T08:40:28.351Z,81.10
2016-07-28T08:41:24.299Z,80.38
2016-07-28T08:42:26.432Z,81.82
2016-07-28T08:43:23.718Z,80.81
2016-07-28T08:44:27.791Z,77.65
2016-07-28T08:45:41.720Z,80.87
2016-07-28T08:46:30.883Z,80.63
2016-07-28T08:47:24.043Z,79.38
2016-07-28T08:48:24.388Z,81.82
2016-07-28T08:49:23.576Z,78.64
2016-07-28T08:50:18.542Z,78.36
2016-07-28T08:51:37.405Z,80.84
2016-07-28T08:52:29.020Z,81.39
2016-07-28T08:53:23.390Z,77.94
2016-07-28T08:54:29.078Z,78.71
2016-07-28T08:55:37.571Z,78.12
2016-07-28T08:56:33.955Z,80.65
2016-07-28T08:57:33.521Z,77.93
2016-07-28T08:59:24.859Z,79.90
2016-07-28T09:00:24.107Z,79.17
2016-07-28T09:02:39.812Z,79.01
2016-07-28T09:03:36.593Z,79.35
2016-07-28T09:04:34.600Z,78.48
2016-07-28T09:05:38.894Z,78.98
2016-07-28T09:06:23.921Z,78.63
2016-07-28T09:07:28.400Z,79.57
2016-07-28T09:08:22.837Z,80.80
2016-07-28T09:09:29.653Z,79.39
2016-07-28T09:10:28.994Z,78.51
2016-07-28T09:11:29.577Z,77.31
2016-07-28T09:12:23.029Z,77.42
2016-07-28T09:14:26.107Z,76.27
2016-07-28T09:15:24.188Z,75.60
2016-07-28T09:16:29.066Z,75.89
2016-07-28T09:17:37.661Z,76.25
2016-07-28T09:18:24.503Z,76.11
2016-07-28T09:19:17.255Z,75.94
2016-07-28T09:20:28.123Z,75.97
2016-07-28T09:21:17.785Z,75.85
2016-07-28T09:22:27.686Z,75.24
2016-07-28T09:23:25.413Z,76.24
2016-07-28T09:24:23.190Z,78.74
2016-07-28T09:25:38.670Z,76.81
2016-07-28T09:26:23.491Z,77.66
2016-07-28T09:27:28.321Z,79.52
2016-07-28T09:28:39.013Z,78.79
2016-07-28T09:29:28.113Z,77.07
2016-07-28T09:30:33.926Z,76.50
2016-07-28T09:31:23.860Z,76.58
2016-07-28T09:32:24.548Z,77.97
2016-07-28T09:33:25.169Z,77.47
2016-07-28T09:34:28.239Z,78.24
2016-07-28T09:35:29.778Z,78.45
2016-07-28T09:36:34.902Z,76.37
2016-07-28T09:37:43.887Z,75.33
2016-07-28T09:38:23.890Z,75.09
2016-07-28T09:39:29.018Z,74.52
2016-07-28T09:40:18.635Z,75.67
2016-07-28T09:44:25.366Z,72.56
2016-07-28T09:45:36.751Z,74.44
2016-07-28T09:46:27.341Z,71.17
2016-07-28T09:47:23.761Z,71.72
2016-07-28T09:48:35.558Z,73.84
2016-07-28T09:49:31.510Z,72.19
2016-07-28T09:50:25.420Z,73.75
2016-07-28T09:51:34.844Z,73.36
2016-07-28T09:52:23.011Z,72.27
2016-07-28T09:53:31.211Z,73.38
2016-07-28T09:55:23.327Z,73.20
2016-07-28T09:56:25.256Z,73.12
2016-07-28T09:57:34.116Z,73.54
2016-07-28T09:58:30.637Z,71.71
2016-07-28T09:59:31.806Z,73.42
2016-07-28T10:00:30.370Z,71.07
2016-07-28T10:01:26.049Z,70.93
2016-07-28T10:02:25.354Z,72.17
2016-07-28T10:03:37.794Z,68.43
2016-07-28T10:05:30.374Z,70.54
2016-07-28T10:06:26.305Z,71.18
2016-07-28T10:07:23.703Z,71.39
2016-07-28T10:08:28.577Z,76.37
2016-07-28T10:09:26.635Z,73.61
2016-07-28T10:10:29.476Z,73.76
2016-07-28T10:11:24.793Z,73.20
2016-07-28T10:12:29.775Z,74.78
2016-07-28T10:14:30.944Z,76.19
2016-07-28T10:15:30.513Z,72.77
2016-07-28T10:16:18.326Z,71.62
2016-07-28T10:17:28.252Z,68.25
2016-07-28T10:18:33.241Z,69.36
2016-07-28T10:19:36.108Z,66.11
2016-07-28T10:20:29.213Z,64.49
2016-07-28T10:21:25.929Z,65.78
2016-07-28T10:22:24.960Z,64.87
2016-07-28T10:23:23.592Z,63.84
2016-07-28T10:24:23.331Z,64.34
2016-07-28T10:25:22.731Z,64.29
2016-07-28T10:26:29.971Z,66.05
2016-07-28T10:27:36.380Z,67.82
2016-07-28T10:28:34.017Z,69.12
2016-07-28T10:29:32.989Z,68.48
2016-07-28T10:30:36.015Z,69.17
2016-07-28T10:31:34.609Z,69.01
2016-07-28T10:32:24.765Z,70.25
2016-07-28T10:33:31.964Z,68.15
2016-07-28T10:34:25.556Z,69.41
2016-07-28T10:35:23.728Z,68.99
2016-07-28T10:36:33.181Z,71.21
2016-07-28T10:38:29.178Z,72.40
2016-07-28T10:39:25.035Z,72.39
2016-07-28T10:40:37.034Z,73.19
2016-07-28T10:41:30.435Z,75.17
2016-07-28T10:42:36.401Z,70.21
2016-07-28T10:44:28.924Z,70.17
2016-07-28T10:45:23.613Z,69.94
2016-07-28T10:46:28.035Z,69.42
2016-07-28T10:47:23.536Z,69.31
2016-07-28T10:48:29.914Z,68.78
2016-07-28T10:49:19.448Z,66.39
2016-07-28T10:50:22.796Z,66.97
2016-07-28T10:52:25.474Z,67.50
2016-07-28T10:53:39.956Z,64.28
2016-07-28T10:54:29.596Z,66.00
2016-07-28T10:55:18.679Z,66.50
2016-07-28T10:56:25.626Z,66.89
2016-07-28T10:57:33.529Z,66.92
2016-07-28T10:58:31.533Z,68.67
2016-07-28T10:59:37.583Z,67.16
2016-07-28T11:00:24.189Z,69.17
2016-07-28T11:01:39.998Z,68.09
2016-07-28T11:02:25.868Z,68.50
2016-07-28T11:03:23.958Z,68.90
2016-07-28T11:04:41.851Z,69.00
2016-07-28T11:05:25.971Z,68.37
2016-07-28T11:06:28.907Z,69.32
2016-07-28T11:07:48.060Z,70.02
2016-07-28T11:08:35.332Z,68.12
2016-07-28T11:09:42.002Z,69.81
2016-07-28T11:10:24.468Z,70.48
2016-07-28T11:11:35.503Z,68.29
2016-07-28T11:12:32.676Z,67.18
2016-07-28T11:14:30.517Z,67.25
2016-07-28T11:17:29.484Z,67.20
2016-07-28T11:18:36.067Z,69.15
2016-07-28T11:19:31.206Z,68.20
2016-07-28T11:20:27.249Z,69.70
2016-07-28T11:21:28.762Z,67.91
2016-07-28T11:22:30.984Z,71.53
2016-07-28T11:23:41.618Z,66.88
2016-07-28T11:24:28.744Z,66.35
2016-07-28T11:25:24.593Z,69.21
2016-07-28T11:26:27.734Z,68.99
2016-07-28T11:27:23.815Z,71.50
2016-07-28T11:28:18.878Z,69.25
2016-07-28T11:29:31.239Z,69.87
2016-07-28T11:31:30.788Z,65.22
2016-07-28T11:32:32.660Z,66.20
2016-07-28T11:33:34.009Z,65.70
2016-07-28T11:34:28.691Z,66.95
2016-07-28T11:35:44.960Z,63.53
2016-07-28T11:36:35.974Z,65.39
2016-07-28T11:37:34.865Z,65.80
2016-07-28T11:38:29.911Z,66.70
2016-07-28T11:39:23.938Z,64.54
2016-07-28T11:40:31.614Z,64.28
2016-07-28T11:41:38.163Z,61.57
2016-07-28T11:42:26.257Z,61.03
2016-07-28T11:43:23.941Z,61.73
2016-07-28T11:44:35.961Z,62.30
2016-07-28T11:45:23.618Z,61.42
2016-07-28T11:46:31.345Z,60.46
2016-07-28T11:47:36.614Z,60.09
2016-07-28T11:48:32.862Z,62.24
2016-07-28T11:49:28.065Z,60.90
2016-07-28T11:50:37.002Z,61.09
2016-07-28T11:51:47.201Z,62.75
2016-07-28T11:52:32.967Z,62.93
2016-07-28T11:53:27.743Z,63.23
2016-07-28T11:54:29.862Z,62.64
2016-07-28T11:55:28.710Z,62.96
2016-07-28T11:56:33.962Z,62.17
2016-07-28T11:57:28.915Z,63.14
2016-07-28T11:58:23.611Z,63.56
2016-07-28T11:59:32.308Z,63.42
2016-07-28T12:01:45.687Z,64.74
2016-07-28T12:02:21.165Z,63.24
2016-07-28T12:04:28.654Z,64.67
2016-07-28T12:05:29.696Z,63.90
2016-07-28T12:08:24.534Z,63.42
2016-07-28T12:10:26.435Z,64.10
2016-07-28T12:11:33.562Z,64.32
2016-07-28T12:12:38.283Z,64.92
2016-07-28T12:13:44.175Z,64.97
2016-07-28T12:16:18.599Z,66.99
2016-07-28T12:17:23.787Z,67.19
2016-07-28T12:18:23.656Z,66.85
2016-07-28T12:19:34.365Z,67.08
2016-07-28T12:20:39.996Z,64.38
2016-07-28T12:21:19.144Z,67.24
2016-07-28T12:22:35.475Z,61.04
2016-07-28T12:23:33.145Z,61.99
2016-07-28T12:24:28.704Z,61.38
2016-07-28T12:25:29.214Z,65.50
2016-07-28T12:26:34.981Z,61.07
2016-07-28T12:27:26.404Z,61.77
2016-07-28T12:28:29.618Z,62.33
2016-07-28T12:29:30.128Z,61.77
2016-07-28T12:30:25.234Z,60.35
2016-07-28T12:31:33.560Z,60.37
2016-07-28T12:32:24.164Z,58.57
2016-07-28T12:33:22.451Z,58.44
2016-07-28T12:34:34.722Z,57.75
2016-07-28T12:35:30.365Z,57.65
2016-07-28T12:36:37.254Z,58.83
2016-07-28T12:37:29.489Z,61.89
2016-07-28T12:38:34.591Z,61.59
2016-07-28T12:39:45.571Z,61.46
2016-07-28T12:40:49.036Z,61.07
2016-07-28T12:42:40.276Z,60.15
2016-07-28T12:43:39.255Z,60.16
2016-07-28T12:44:28.961Z,61.87
2016-07-28T12:45:23.555Z,59.75
2016-07-28T12:46:38.081Z,59.49
2016-07-28T12:47:32.199Z,59.93
2016-07-28T12:48:34.387Z,59.78
2016-07-28T12:49:33.627Z,60.01
2016-07-28T12:50:28.021Z,58.95
2016-07-28T12:51:30.192Z,59.45
2016-07-28T12:52:48.710Z,59.54
2016-07-28T12:53:35.910Z,60.80
2016-07-28T12:54:25.145Z,59.39
2016-07-28T12:55:32.147Z,56.87
2016-07-28T12:56:34.150Z,57.45
2016-07-28T12:57:26.891Z,58.81
2016-07-28T12:58:28.518Z,59.74
2016-07-28T12:59:27.263Z,59.39
2016-07-28T13:00:28.776Z,61.27
2016-07-28T13:01:49.298Z,57.75
2016-07-28T13:02:24.670Z,58.26
2016-07-28T13:03:25.235Z,55.32
2016-07-28T13:04:25.196Z,56.37
2016-07-28T13:05:38.182Z,57.44
2016-07-28T13:06:44.601Z,57.82
2016-07-28T13:08:35.414Z,56.80
2016-07-28T13:09:29.116Z,56.63
2016-07-28T13:10:30.692Z,57.19
2016-07-28T13:11:33.128Z,58.16
2016-07-28T13:12:28.306Z,59.50
2016-07-28T13:13:30.362Z,60.41
2016-07-28T13:14:27.269Z,62.11
2016-07-28T13:15:25.783Z,63.40
2016-07-28T13:16:34.496Z,60.56
2016-07-28T13:17:28.742Z,60.60
2016-07-28T13:18:29.437Z,58.42
2016-07-28T13:19:26.689Z,59.99
2016-07-28T13:20:28.773Z,56.89
2016-07-28T13:21:24.289Z,57.86
2016-07-28T13:22:40.122Z,57.71
2016-07-28T13:23:19.832Z,59.94
2016-07-28T13:25:41.636Z,65.03
2016-07-28T13:26:41.086Z,64.15
2016-07-28T13:27:39.762Z,64.00
2016-07-28T13:28:39.926Z,64.42
2016-07-28T13:29:30.170Z,67.56
2016-07-28T13:31:45.114Z,63.02
2016-07-28T13:32:35.450Z,63.61
2016-07-28T13:34:24.489Z,65.43
2016-07-28T13:35:23.948Z,66.16
2016-07-28T13:36:31.330Z,64.93
2016-07-28T13:37:44.114Z,63.23
2016-07-28T13:38:29.229Z,63.13
2016-07-28T13:39:23.810Z,63.93
2016-07-28T13:41:32.884Z,63.69
2016-07-28T13:42:34.797Z,65.45
2016-07-28T13:44:31.697Z,65.29
2016-07-28T13:45:28.607Z,65.93
2016-07-28T13:46:30.034Z,66.08
2016-07-28T13:47:27.523Z,66.41
2016-07-28T13:48:33.985Z,65.53
2016-07-28T13:49:32.093Z,62.50
2016-07-28T13:50:18.943Z,63.94
2016-07-28T13:51:24.181Z,61.17
2016-07-28T13:52:30.482Z,63.73
2016-07-28T13:53:23.424Z,63.41
2016-07-28T13:54:36.415Z,58.87
2016-07-28T13:56:28.106Z,59.98
2016-07-28T13:57:42.859Z,58.99
2016-07-28T13:59:39.710Z,61.04
2016-07-28T14:03:29.484Z,58.99
2016-07-28T14:04:32.231Z,59.36
2016-07-28T14:05:44.122Z,61.31
2016-07-28T14:06:23.793Z,61.15
2016-07-28T14:07:19.557Z,61.19
2016-07-28T14:08:27.271Z,61.60
2016-07-28T14:09:26.584Z,61.03
2016-07-28T14:10:24.026Z,59.89
2016-07-28T14:11:34.445Z,57.31
2016-07-28T14:12:42.194Z,60.91
2016-07-28T14:13:24.364Z,61.83
2016-07-28T14:16:32.997Z,62.62
2016-07-28T14:17:47.605Z,62.44
2016-07-28T14:18:31.240Z,61.53
2016-07-28T14:19:29.701Z,63.30
2016-07-28T14:21:23.144Z,62.50
2016-07-28T14:22:23.418Z,65.01
2016-07-28T14:23:46.364Z,64.44
2016-07-28T14:24:35.085Z,63.27
2016-07-28T14:26:25.711Z,64.61
2016-07-28T14:28:49.705Z,65.71
2016-07-28T14:29:35.386Z,66.14
2016-07-28T14:30:30.418Z,66.01
2016-07-28T14:31:33.969Z,68.21